Dauntless Aviation
Airports Europe France
LFKX
MFX

Méribel Altiport

Meribel, FRANCE

Airport Info
Suggest Updated Information for this Airport

Location

Latitude / Longitude: 45°24'25"N / 6°34'40"E
  45°24.42'N / 6°34.674'E
  45.4070 / 6.5779

Runway Information

Runway 15 /33

Dimensions: 1312 x 49 ft.
Surface: ASP
 
Runway 15
Runway 33
Latitude: 45.409189 45.405878
Longitude: 6.576489 6.578697
Elevation: 5548 ft. 5548 ft.
Runway true heading: 152.6 332.6
 

Instrument Procedures

IAPs (Instrument Approach Procedures)

  Visual Approach Chart
Satellite photo at:
Airport distance calculator
From:
Weather Reports

METAR

LFLB
32.9nm W
LFLB 200030Z AUTO 08005KT 050V110 CAVOK 24/18 Q1014
LFLP
37.0nm NW
LFLP 200030Z AUTO 22006KT 150V250 CAVOK 22/17 Q1015

TAF

LFLB
32.9nm W
TAF LFLB 191400Z 1915/2015 36006KT CAVOK BECMG 1917/1920 18008KT TEMPO 1922/2005 VRB03KT SHRA SCT090TCU BKN100 BECMG 2005/2007 36006KT TEMPO 2010/2015 VRB20G35KT 3000 TSRA BKN060CB PROB40 TEMPO 2010/2015 VRB30G50KT 1500 +TSRAGR
LFLP
37.0nm NW
TAF LFLP 191400Z 1915/2015 22005KT CAVOK TEMPO 1922/2005 SHRA SCT080TCU BKN090 TEMPO 2011/2015 VRB20G35KT 3000 TSRA SCT012 BKN060CB PROB40 TEMPO 2011/2015 VRB30G50KT 1500 +TSRAGR
Safelog

 

Dauntless Aviation

© 2007-2021 Dauntless Aviation, all rights reserved
Information provided via PilotNav comes from a variety of official and unofficial data sources. As errors are possible, do not use PilotNav for primary flight planning purposes. Verify any information that you receive via PilotNav with current and canonical charts and other official documents. The material in this database is subject to database copyrights held by Dauntless Aviation and may not be copied without the express permission of Dauntless Aviation - licenses for use of part of all of this data are available for purchase; enquire via the Dauntless Aviation helpdesk. A number of mechanisms and markers exist in the database to protect against and identify infringement / copyright. Automated queries against this website are strictly prohibited, and all activity is logged and analyzed.